sensor_id;sensor_type;location;lat;lon;timestamp;P1;durP1;ratioP1;P2;durP2;ratioP2
80241;SDS011;69556;45.004;7.532;2023-04-24T00:00:03;13.38;;;8.88;;
80241;SDS011;69556;45.004;7.532;2023-04-24T00:02:34;14.15;;;10.40;;
80241;SDS011;69556;45.004;7.532;2023-04-24T00:05:02;11.80;;;9.73;;
80241;SDS011;69556;45.004;7.532;2023-04-24T00:07:29;12.73;;;8.88;;
80241;SDS011;69556;45.004;7.532;2023-04-24T00:09:55;13.45;;;9.70;;
80241;SDS011;69556;45.004;7.532;2023-04-24T00:12:20;15.88;;;8.98;;
80241;SDS011;69556;45.004;7.532;2023-04-24T00:14:45;11.97;;;8.23;;
80241;SDS011;69556;45.004;7.532;2023-04-24T00:17:11;14.70;;;9.75;;
80241;SDS011;69556;45.004;7.532;2023-04-24T00:19:36;11.87;;;8.40;;
80241;SDS011;69556;45.004;7.532;2023-04-24T00:22:02;14.77;;;9.07;;
80241;SDS011;69556;45.004;7.532;2023-04-24T00:24:28;13.27;;;9.23;;
80241;SDS011;69556;45.004;7.532;2023-04-24T00:26:53;14.18;;;8.82;;
80241;SDS011;69556;45.004;7.532;2023-04-24T00:29:19;14.37;;;9.13;;
80241;SDS011;69556;45.004;7.532;2023-04-24T00:31:44;15.55;;;8.90;;
80241;SDS011;69556;45.004;7.532;2023-04-24T00:34:10;15.15;;;9.15;;
80241;SDS011;69556;45.004;7.532;2023-04-24T00:36:36;12.02;;;8.95;;
80241;SDS011;69556;45.004;7.532;2023-04-24T00:39:02;13.90;;;10.20;;
80241;SDS011;69556;45.004;7.532;2023-04-24T00:41:27;13.05;;;9.13;;
80241;SDS011;69556;45.004;7.532;2023-04-24T00:43:53;19.65;;;9.45;;
80241;SDS011;69556;45.004;7.532;2023-04-24T00:46:18;13.02;;;8.85;;
80241;SDS011;69556;45.004;7.532;2023-04-24T00:48:44;12.45;;;9.57;;
80241;SDS011;69556;45.004;7.532;2023-04-24T00:51:10;14.43;;;9.85;;
80241;SDS011;69556;45.004;7.532;2023-04-24T00:53:35;13.65;;;9.05;;
80241;SDS011;69556;45.004;7.532;2023-04-24T00:56:01;14.98;;;9.30;;
80241;SDS011;69556;45.004;7.532;2023-04-24T00:58:27;15.45;;;10.20;;
80241;SDS011;69556;45.004;7.532;2023-04-24T01:00:52;13.45;;;9.30;;
80241;SDS011;69556;45.004;7.532;2023-04-24T01:03:20;14.05;;;9.55;;
80241;SDS011;69556;45.004;7.532;2023-04-24T01:05:47;15.63;;;9.13;;
80241;SDS011;69556;45.004;7.532;2023-04-24T01:08:14;15.10;;;9.93;;
80241;SDS011;69556;45.004;7.532;2023-04-24T01:10:40;13.32;;;8.82;;
80241;SDS011;69556;45.004;7.532;2023-04-24T01:13:07;12.55;;;9.40;;
80241;SDS011;69556;45.004;7.532;2023-04-24T01:15:33;12.63;;;9.88;;
80241;SDS011;69556;45.004;7.532;2023-04-24T01:17:59;17.35;;;9.60;;
80241;SDS011;69556;45.004;7.532;2023-04-24T01:20:24;15.25;;;9.77;;
80241;SDS011;69556;45.004;7.532;2023-04-24T01:22:51;14.05;;;9.23;;
80241;SDS011;69556;45.004;7.532;2023-04-24T01:25:17;12.35;;;9.40;;
80241;SDS011;69556;45.004;7.532;2023-04-24T01:27:42;11.73;;;8.48;;
80241;SDS011;69556;45.004;7.532;2023-04-24T01:30:08;11.60;;;9.18;;
80241;SDS011;69556;45.004;7.532;2023-04-24T01:32:34;14.85;;;10.18;;
80241;SDS011;69556;45.004;7.532;2023-04-24T01:35:01;13.00;;;9.13;;
80241;SDS011;69556;45.004;7.532;2023-04-24T01:37:27;11.65;;;9.20;;
80241;SDS011;69556;45.004;7.532;2023-04-24T01:39:52;16.23;;;9.35;;
80241;SDS011;69556;45.004;7.532;2023-04-24T01:42:17;16.25;;;9.65;;
80241;SDS011;69556;45.004;7.532;2023-04-24T01:44:43;14.85;;;9.20;;
80241;SDS011;69556;45.004;7.532;2023-04-24T01:47:09;12.40;;;9.88;;
80241;SDS011;69556;45.004;7.532;2023-04-24T01:49:35;13.23;;;8.95;;
80241;SDS011;69556;45.004;7.532;2023-04-24T01:52:02;13.70;;;9.50;;
80241;SDS011;69556;45.004;7.532;2023-04-24T01:54:27;14.27;;;9.32;;
80241;SDS011;69556;45.004;7.532;2023-04-24T01:56:53;15.25;;;9.50;;
80241;SDS011;69556;45.004;7.532;2023-04-24T01:59:18;12.77;;;8.40;;
80241;SDS011;69556;45.004;7.532;2023-04-24T02:01:46;12.55;;;8.63;;
80241;SDS011;69556;45.004;7.532;2023-04-24T02:04:11;12.93;;;8.40;;
80241;SDS011;69556;45.004;7.532;2023-04-24T02:06:37;13.75;;;10.35;;
80241;SDS011;69556;45.004;7.532;2023-04-24T02:09:02;10.90;;;8.05;;
80241;SDS011;69556;45.004;7.532;2023-04-24T02:11:28;16.20;;;8.52;;
80241;SDS011;69556;45.004;7.532;2023-04-24T02:13:53;12.65;;;7.63;;
80241;SDS011;69556;45.004;7.532;2023-04-24T02:16:19;10.02;;;7.35;;
80241;SDS011;69556;45.004;7.532;2023-04-24T02:18:44;11.98;;;7.97;;
80241;SDS011;69556;45.004;7.532;2023-04-24T02:21:10;12.65;;;8.55;;
80241;SDS011;69556;45.004;7.532;2023-04-24T02:23:35;10.23;;;7.60;;
80241;SDS011;69556;45.004;7.532;2023-04-24T02:26:01;16.13;;;8.57;;
80241;SDS011;69556;45.004;7.532;2023-04-24T02:28:27;11.30;;;8.68;;
80241;SDS011;69556;45.004;7.532;2023-04-24T02:30:52;12.88;;;8.60;;
80241;SDS011;69556;45.004;7.532;2023-04-24T02:33:18;14.97;;;8.33;;
80241;SDS011;69556;45.004;7.532;2023-04-24T02:35:43;12.77;;;8.50;;
80241;SDS011;69556;45.004;7.532;2023-04-24T02:38:08;14.82;;;9.55;;
80241;SDS011;69556;45.004;7.532;2023-04-24T02:40:34;12.57;;;9.57;;
80241;SDS011;69556;45.004;7.532;2023-04-24T02:42:59;14.10;;;8.50;;
80241;SDS011;69556;45.004;7.532;2023-04-24T02:45:24;12.55;;;8.60;;
80241;SDS011;69556;45.004;7.532;2023-04-24T02:47:50;15.05;;;8.65;;
80241;SDS011;69556;45.004;7.532;2023-04-24T02:50:15;11.60;;;8.00;;
80241;SDS011;69556;45.004;7.532;2023-04-24T02:52:41;13.40;;;9.13;;
80241;SDS011;69556;45.004;7.532;2023-04-24T02:55:06;11.70;;;8.00;;
80241;SDS011;69556;45.004;7.532;2023-04-24T02:57:33;11.90;;;7.72;;
80241;SDS011;69556;45.004;7.532;2023-04-24T02:59:58;13.82;;;8.95;;
80241;SDS011;69556;45.004;7.532;2023-04-24T03:02:23;13.27;;;8.73;;
80241;SDS011;69556;45.004;7.532;2023-04-24T03:04:49;14.45;;;9.75;;
80241;SDS011;69556;45.004;7.532;2023-04-24T03:07:14;13.77;;;10.17;;
80241;SDS011;69556;45.004;7.532;2023-04-24T03:09:40;15.05;;;8.15;;
80241;SDS011;69556;45.004;7.532;2023-04-24T03:12:05;15.18;;;9.65;;
80241;SDS011;69556;45.004;7.532;2023-04-24T03:14:31;14.60;;;8.48;;
80241;SDS011;69556;45.004;7.532;2023-04-24T03:16:56;15.15;;;9.00;;
80241;SDS011;69556;45.004;7.532;2023-04-24T03:19:22;12.15;;;7.68;;
80241;SDS011;69556;45.004;7.532;2023-04-24T03:21:47;14.02;;;9.05;;
80241;SDS011;69556;45.004;7.532;2023-04-24T03:24:13;13.15;;;8.40;;
80241;SDS011;69556;45.004;7.532;2023-04-24T03:26:38;13.95;;;8.02;;
80241;SDS011;69556;45.004;7.532;2023-04-24T03:29:04;12.52;;;9.70;;
80241;SDS011;69556;45.004;7.532;2023-04-24T03:31:29;16.57;;;8.93;;
80241;SDS011;69556;45.004;7.532;2023-04-24T03:33:54;13.65;;;8.68;;
80241;SDS011;69556;45.004;7.532;2023-04-24T03:36:20;15.48;;;9.05;;
80241;SDS011;69556;45.004;7.532;2023-04-24T03:38:45;13.20;;;8.80;;
80241;SDS011;69556;45.004;7.532;2023-04-24T03:41:11;12.03;;;8.73;;
80241;SDS011;69556;45.004;7.532;2023-04-24T03:43:36;15.10;;;9.75;;
80241;SDS011;69556;45.004;7.532;2023-04-24T03:46:02;12.95;;;9.40;;
80241;SDS011;69556;45.004;7.532;2023-04-24T03:48:27;13.18;;;9.05;;
80241;SDS011;69556;45.004;7.532;2023-04-24T03:50:53;12.90;;;9.02;;
80241;SDS011;69556;45.004;7.532;2023-04-24T03:53:18;12.23;;;9.18;;
80241;SDS011;69556;45.004;7.532;2023-04-24T03:55:44;16.67;;;8.88;;
80241;SDS011;69556;45.004;7.532;2023-04-24T03:58:10;15.13;;;10.13;;
80241;SDS011;69556;45.004;7.532;2023-04-24T04:00:36;14.55;;;7.97;;
80241;SDS011;69556;45.004;7.532;2023-04-24T04:03:02;13.05;;;8.30;;
80241;SDS011;69556;45.004;7.532;2023-04-24T04:05:28;11.73;;;8.75;;
80241;SDS011;69556;45.004;7.532;2023-04-24T04:07:54;11.77;;;8.50;;
80241;SDS011;69556;45.004;7.532;2023-04-24T04:10:19;15.52;;;8.20;;
80241;SDS011;69556;45.004;7.532;2023-04-24T04:12:45;12.95;;;8.50;;
80241;SDS011;69556;45.004;7.532;2023-04-24T04:15:10;15.88;;;9.15;;
80241;SDS011;69556;45.004;7.532;2023-04-24T04:17:36;11.85;;;8.95;;
80241;SDS011;69556;45.004;7.532;2023-04-24T04:20:03;12.32;;;8.52;;
80241;SDS011;69556;45.004;7.532;2023-04-24T04:22:32;13.20;;;8.63;;
80241;SDS011;69556;45.004;7.532;2023-04-24T04:24:57;11.30;;;8.20;;
80241;SDS011;69556;45.004;7.532;2023-04-24T04:27:22;12.73;;;8.67;;
80241;SDS011;69556;45.004;7.532;2023-04-24T04:29:48;14.20;;;8.98;;
80241;SDS011;69556;45.004;7.532;2023-04-24T04:32:13;12.57;;;8.30;;
80241;SDS011;69556;45.004;7.532;2023-04-24T04:34:38;10.50;;;7.80;;
80241;SDS011;69556;45.004;7.532;2023-04-24T04:37:04;13.32;;;9.80;;
80241;SDS011;69556;45.004;7.532;2023-04-24T04:39:30;14.77;;;8.63;;
80241;SDS011;69556;45.004;7.532;2023-04-24T04:41:56;15.00;;;9.02;;
80241;SDS011;69556;45.004;7.532;2023-04-24T04:44:21;11.18;;;8.70;;
80241;SDS011;69556;45.004;7.532;2023-04-24T04:46:48;13.88;;;8.35;;
80241;SDS011;69556;45.004;7.532;2023-04-24T04:49:14;14.60;;;8.60;;
80241;SDS011;69556;45.004;7.532;2023-04-24T04:51:41;12.95;;;8.98;;
80241;SDS011;69556;45.004;7.532;2023-04-24T04:54:07;14.68;;;8.50;;
80241;SDS011;69556;45.004;7.532;2023-04-24T04:56:32;10.13;;;7.20;;
80241;SDS011;69556;45.004;7.532;2023-04-24T04:58:57;16.33;;;9.90;;
80241;SDS011;69556;45.004;7.532;2023-04-24T05:01:24;13.38;;;8.95;;
80241;SDS011;69556;45.004;7.532;2023-04-24T05:03:50;15.90;;;7.97;;
80241;SDS011;69556;45.004;7.532;2023-04-24T05:06:15;12.20;;;7.85;;
80241;SDS011;69556;45.004;7.532;2023-04-24T05:08:41;14.38;;;9.00;;
80241;SDS011;69556;45.004;7.532;2023-04-24T05:11:07;17.87;;;9.77;;
80241;SDS011;69556;45.004;7.532;2023-04-24T05:13:32;13.52;;;8.88;;
80241;SDS011;69556;45.004;7.532;2023-04-24T05:15:58;14.23;;;8.60;;
80241;SDS011;69556;45.004;7.532;2023-04-24T05:18:23;14.05;;;9.25;;
80241;SDS011;69556;45.004;7.532;2023-04-24T05:20:49;19.70;;;9.52;;
80241;SDS011;69556;45.004;7.532;2023-04-24T05:23:14;12.77;;;8.63;;
80241;SDS011;69556;45.004;7.532;2023-04-24T05:25:40;13.48;;;9.35;;
80241;SDS011;69556;45.004;7.532;2023-04-24T05:28:06;14.70;;;8.75;;
80241;SDS011;69556;45.004;7.532;2023-04-24T05:30:31;13.93;;;8.95;;
80241;SDS011;69556;45.004;7.532;2023-04-24T05:32:57;14.85;;;9.00;;
80241;SDS011;69556;45.004;7.532;2023-04-24T05:35:22;15.97;;;9.40;;
80241;SDS011;69556;45.004;7.532;2023-04-24T05:37:47;11.02;;;8.80;;
80241;SDS011;69556;45.004;7.532;2023-04-24T05:40:13;14.32;;;8.68;;
80241;SDS011;69556;45.004;7.532;2023-04-24T05:42:38;13.30;;;9.15;;
80241;SDS011;69556;45.004;7.532;2023-04-24T05:45:04;13.13;;;9.15;;
80241;SDS011;69556;45.004;7.532;2023-04-24T05:47:30;15.23;;;9.68;;
80241;SDS011;69556;45.004;7.532;2023-04-24T05:49:56;15.15;;;8.93;;
80241;SDS011;69556;45.004;7.532;2023-04-24T05:52:21;15.23;;;10.20;;
80241;SDS011;69556;45.004;7.532;2023-04-24T05:54:46;16.67;;;9.65;;
80241;SDS011;69556;45.004;7.532;2023-04-24T05:57:12;19.25;;;11.55;;
80241;SDS011;69556;45.004;7.532;2023-04-24T05:59:38;14.70;;;9.55;;
80241;SDS011;69556;45.004;7.532;2023-04-24T06:02:03;16.58;;;10.35;;
80241;SDS011;69556;45.004;7.532;2023-04-24T06:04:29;11.82;;;8.90;;
80241;SDS011;69556;45.004;7.532;2023-04-24T06:06:54;14.27;;;9.75;;
80241;SDS011;69556;45.004;7.532;2023-04-24T06:09:23;13.93;;;9.10;;
80241;SDS011;69556;45.004;7.532;2023-04-24T06:11:49;14.32;;;10.20;;
80241;SDS011;69556;45.004;7.532;2023-04-24T06:14:17;13.43;;;9.27;;
80241;SDS011;69556;45.004;7.532;2023-04-24T06:16:42;13.80;;;9.57;;
80241;SDS011;69556;45.004;7.532;2023-04-24T06:19:08;16.35;;;10.10;;
80241;SDS011;69556;45.004;7.532;2023-04-24T06:21:33;19.58;;;10.10;;
80241;SDS011;69556;45.004;7.532;2023-04-24T06:23:59;11.67;;;9.03;;
80241;SDS011;69556;45.004;7.532;2023-04-24T06:26:24;14.13;;;10.63;;
80241;SDS011;69556;45.004;7.532;2023-04-24T06:28:51;16.05;;;9.32;;
80241;SDS011;69556;45.004;7.532;2023-04-24T06:31:18;18.70;;;10.23;;
80241;SDS011;69556;45.004;7.532;2023-04-24T06:33:44;12.48;;;8.25;;
80241;SDS011;69556;45.004;7.532;2023-04-24T06:36:10;13.48;;;7.32;;
80241;SDS011;69556;45.004;7.532;2023-04-24T06:38:35;14.38;;;7.75;;
80241;SDS011;69556;45.004;7.532;2023-04-24T06:41:01;11.98;;;8.20;;
80241;SDS011;69556;45.004;7.532;2023-04-24T06:43:26;18.33;;;10.32;;
80241;SDS011;69556;45.004;7.532;2023-04-24T06:45:51;13.23;;;8.23;;
80241;SDS011;69556;45.004;7.532;2023-04-24T06:48:17;11.40;;;8.23;;
80241;SDS011;69556;45.004;7.532;2023-04-24T06:50:42;12.80;;;8.43;;
80241;SDS011;69556;45.004;7.532;2023-04-24T06:53:07;13.43;;;8.10;;
80241;SDS011;69556;45.004;7.532;2023-04-24T06:58:01;10.07;;;6.90;;
80241;SDS011;69556;45.004;7.532;2023-04-24T07:00:26;11.43;;;8.55;;
80241;SDS011;69556;45.004;7.532;2023-04-24T07:02:51;12.77;;;8.30;;
80241;SDS011;69556;45.004;7.532;2023-04-24T07:05:17;15.27;;;8.83;;
80241;SDS011;69556;45.004;7.532;2023-04-24T07:07:45;15.13;;;8.20;;
80241;SDS011;69556;45.004;7.532;2023-04-24T07:10:11;13.05;;;8.05;;
80241;SDS011;69556;45.004;7.532;2023-04-24T07:12:38;11.07;;;7.93;;
80241;SDS011;69556;45.004;7.532;2023-04-24T07:15:03;14.77;;;8.23;;
80241;SDS011;69556;45.004;7.532;2023-04-24T07:17:31;15.23;;;8.80;;
80241;SDS011;69556;45.004;7.532;2023-04-24T07:19:56;16.00;;;9.83;;
80241;SDS011;69556;45.004;7.532;2023-04-24T07:22:21;13.30;;;9.07;;
80241;SDS011;69556;45.004;7.532;2023-04-24T07:24:47;13.70;;;10.30;;
80241;SDS011;69556;45.004;7.532;2023-04-24T07:27:13;15.57;;;10.03;;
80241;SDS011;69556;45.004;7.532;2023-04-24T07:29:39;14.73;;;10.43;;
80241;SDS011;69556;45.004;7.532;2023-04-24T07:32:05;15.35;;;10.73;;
80241;SDS011;69556;45.004;7.532;2023-04-24T07:34:31;16.30;;;10.07;;
80241;SDS011;69556;45.004;7.532;2023-04-24T07:36:56;21.13;;;11.43;;
80241;SDS011;69556;45.004;7.532;2023-04-24T07:39:22;16.88;;;11.60;;
80241;SDS011;69556;45.004;7.532;2023-04-24T07:41:48;14.02;;;10.73;;
80241;SDS011;69556;45.004;7.532;2023-04-24T07:44:13;17.70;;;11.23;;
80241;SDS011;69556;45.004;7.532;2023-04-24T07:46:38;18.37;;;11.17;;
80241;SDS011;69556;45.004;7.532;2023-04-24T07:49:04;15.65;;;10.85;;
80241;SDS011;69556;45.004;7.532;2023-04-24T07:51:30;14.70;;;10.13;;
80241;SDS011;69556;45.004;7.532;2023-04-24T07:53:56;13.93;;;10.35;;
80241;SDS011;69556;45.004;7.532;2023-04-24T07:56:21;18.67;;;11.10;;
80241;SDS011;69556;45.004;7.532;2023-04-24T07:58:47;14.77;;;10.90;;
80241;SDS011;69556;45.004;7.532;2023-04-24T08:01:12;16.00;;;10.97;;
80241;SDS011;69556;45.004;7.532;2023-04-24T08:03:37;17.02;;;11.13;;
80241;SDS011;69556;45.004;7.532;2023-04-24T08:06:03;15.70;;;11.73;;
80241;SDS011;69556;45.004;7.532;2023-04-24T08:08:28;14.43;;;10.35;;
80241;SDS011;69556;45.004;7.532;2023-04-24T08:10:54;16.58;;;11.50;;
80241;SDS011;69556;45.004;7.532;2023-04-24T08:13:19;17.65;;;12.88;;
80241;SDS011;69556;45.004;7.532;2023-04-24T08:15:45;17.60;;;12.55;;
80241;SDS011;69556;45.004;7.532;2023-04-24T08:18:11;19.50;;;12.52;;
80241;SDS011;69556;45.004;7.532;2023-04-24T08:20:37;17.08;;;11.93;;
80241;SDS011;69556;45.004;7.532;2023-04-24T08:23:03;15.55;;;11.20;;
80241;SDS011;69556;45.004;7.532;2023-04-24T08:25:28;17.33;;;11.23;;
80241;SDS011;69556;45.004;7.532;2023-04-24T08:27:53;17.67;;;11.60;;
80241;SDS011;69556;45.004;7.532;2023-04-24T08:30:19;20.30;;;12.23;;
80241;SDS011;69556;45.004;7.532;2023-04-24T08:32:45;25.23;;;13.10;;
80241;SDS011;69556;45.004;7.532;2023-04-24T08:35:11;16.15;;;12.07;;
80241;SDS011;69556;45.004;7.532;2023-04-24T08:37:36;20.08;;;13.07;;
80241;SDS011;69556;45.004;7.532;2023-04-24T08:40:03;19.85;;;14.50;;
80241;SDS011;69556;45.004;7.532;2023-04-24T08:42:36;20.33;;;12.75;;
80241;SDS011;69556;45.004;7.532;2023-04-24T08:45:03;19.33;;;14.05;;
80241;SDS011;69556;45.004;7.532;2023-04-24T08:47:28;19.73;;;14.70;;
80241;SDS011;69556;45.004;7.532;2023-04-24T08:49:54;21.52;;;14.73;;
80241;SDS011;69556;45.004;7.532;2023-04-24T08:52:20;20.48;;;13.68;;
80241;SDS011;69556;45.004;7.532;2023-04-24T08:54:46;19.15;;;14.40;;
80241;SDS011;69556;45.004;7.532;2023-04-24T08:57:12;19.70;;;14.25;;
80241;SDS011;69556;45.004;7.532;2023-04-24T08:59:40;23.65;;;16.35;;
80241;SDS011;69556;45.004;7.532;2023-04-24T09:02:05;20.05;;;14.98;;
80241;SDS011;69556;45.004;7.532;2023-04-24T09:04:34;21.23;;;15.35;;
80241;SDS011;69556;45.004;7.532;2023-04-24T09:07:00;19.00;;;14.50;;
80241;SDS011;69556;45.004;7.532;2023-04-24T09:09:28;19.92;;;13.55;;
80241;SDS011;69556;45.004;7.532;2023-04-24T09:11:55;17.23;;;13.60;;
80241;SDS011;69556;45.004;7.532;2023-04-24T09:14:22;18.63;;;13.43;;
80241;SDS011;69556;45.004;7.532;2023-04-24T09:16:48;20.35;;;14.05;;
80241;SDS011;69556;45.004;7.532;2023-04-24T09:19:14;18.52;;;12.93;;
80241;SDS011;69556;45.004;7.532;2023-04-24T09:21:40;17.63;;;13.05;;
80241;SDS011;69556;45.004;7.532;2023-04-24T09:24:07;24.90;;;13.27;;
80241;SDS011;69556;45.004;7.532;2023-04-24T09:26:39;14.90;;;12.10;;
80241;SDS011;69556;45.004;7.532;2023-04-24T09:29:05;15.60;;;11.70;;
80241;SDS011;69556;45.004;7.532;2023-04-24T09:31:30;18.83;;;13.15;;
80241;SDS011;69556;45.004;7.532;2023-04-24T09:33:57;16.15;;;11.52;;
80241;SDS011;69556;45.004;7.532;2023-04-24T09:39:02;20.17;;;11.52;;
80241;SDS011;69556;45.004;7.532;2023-04-24T09:41:29;18.15;;;13.07;;
80241;SDS011;69556;45.004;7.532;2023-04-24T09:43:55;16.95;;;11.70;;
80241;SDS011;69556;45.004;7.532;2023-04-24T09:46:21;17.75;;;12.73;;
80241;SDS011;69556;45.004;7.532;2023-04-24T09:48:53;20.52;;;12.30;;
80241;SDS011;69556;45.004;7.532;2023-04-24T09:51:19;17.77;;;12.63;;
80241;SDS011;69556;45.004;7.532;2023-04-24T09:53:58;17.98;;;13.23;;
80241;SDS011;69556;45.004;7.532;2023-04-24T09:56:24;18.55;;;12.70;;
80241;SDS011;69556;45.004;7.532;2023-04-24T09:58:51;17.90;;;13.98;;
80241;SDS011;69556;45.004;7.532;2023-04-24T10:01:16;20.08;;;14.95;;
80241;SDS011;69556;45.004;7.532;2023-04-24T10:03:55;23.25;;;14.77;;
80241;SDS011;69556;45.004;7.532;2023-04-24T10:06:20;20.85;;;15.52;;
80241;SDS011;69556;45.004;7.532;2023-04-24T10:08:46;21.45;;;15.35;;
80241;SDS011;69556;45.004;7.532;2023-04-24T10:11:13;22.35;;;15.48;;
80241;SDS011;69556;45.004;7.532;2023-04-24T10:13:39;21.13;;;15.90;;
80241;SDS011;69556;45.004;7.532;2023-04-24T10:16:05;21.50;;;16.58;;
80241;SDS011;69556;45.004;7.532;2023-04-24T10:18:32;22.33;;;15.35;;
80241;SDS011;69556;45.004;7.532;2023-04-24T10:20:59;20.15;;;15.50;;
80241;SDS011;69556;45.004;7.532;2023-04-24T10:23:25;19.05;;;13.32;;
80241;SDS011;69556;45.004;7.532;2023-04-24T10:25:50;17.70;;;12.70;;
80241;SDS011;69556;45.004;7.532;2023-04-24T10:28:17;19.63;;;14.18;;
80241;SDS011;69556;45.004;7.532;2023-04-24T10:30:44;21.65;;;15.07;;
80241;SDS011;69556;45.004;7.532;2023-04-24T10:33:10;22.10;;;16.27;;
80241;SDS011;69556;45.004;7.532;2023-04-24T10:35:38;22.77;;;16.05;;
80241;SDS011;69556;45.004;7.532;2023-04-24T10:38:07;22.08;;;16.35;;
80241;SDS011;69556;45.004;7.532;2023-04-24T10:40:34;20.83;;;14.65;;
80241;SDS011;69556;45.004;7.532;2023-04-24T10:43:07;20.55;;;15.73;;
80241;SDS011;69556;45.004;7.532;2023-04-24T10:45:36;23.23;;;15.10;;
80241;SDS011;69556;45.004;7.532;2023-04-24T10:48:05;25.33;;;17.50;;
80241;SDS011;69556;45.004;7.532;2023-04-24T10:50:56;24.08;;;16.63;;
80241;SDS011;69556;45.004;7.532;2023-04-24T10:53:22;22.85;;;17.27;;
80241;SDS011;69556;45.004;7.532;2023-04-24T10:55:57;25.63;;;18.77;;
80241;SDS011;69556;45.004;7.532;2023-04-24T11:01:29;23.33;;;17.15;;
80241;SDS011;69556;45.004;7.532;2023-04-24T11:03:57;21.00;;;14.85;;
80241;SDS011;69556;45.004;7.532;2023-04-24T11:06:31;21.42;;;15.40;;
80241;SDS011;69556;45.004;7.532;2023-04-24T11:09:05;17.27;;;14.15;;
80241;SDS011;69556;45.004;7.532;2023-04-24T11:11:36;18.33;;;13.32;;
80241;SDS011;69556;45.004;7.532;2023-04-24T11:14:05;21.98;;;14.82;;
80241;SDS011;69556;45.004;7.532;2023-04-24T11:16:33;27.58;;;15.48;;
80241;SDS011;69556;45.004;7.532;2023-04-24T11:21:43;19.08;;;14.75;;
80241;SDS011;69556;45.004;7.532;2023-04-24T11:24:22;17.98;;;12.85;;
80241;SDS011;69556;45.004;7.532;2023-04-24T11:26:47;19.23;;;15.30;;
80241;SDS011;69556;45.004;7.532;2023-04-24T11:29:13;25.60;;;16.63;;
80241;SDS011;69556;45.004;7.532;2023-04-24T11:31:39;21.40;;;18.03;;
80241;SDS011;69556;45.004;7.532;2023-04-24T11:34:10;19.98;;;15.27;;
80241;SDS011;69556;45.004;7.532;2023-04-24T11:36:38;19.35;;;12.93;;
80241;SDS011;69556;45.004;7.532;2023-04-24T11:39:05;16.85;;;12.65;;
80241;SDS011;69556;45.004;7.532;2023-04-24T11:41:31;17.25;;;12.38;;
